createdAt,value
2022-10-19T00:01:05.765Z,19.60
2022-10-19T00:03:34.337Z,17.42
2022-10-19T00:06:10.926Z,16.67
2022-10-19T00:08:39.099Z,17.92
2022-10-19T00:11:07.392Z,17.17
2022-10-19T00:13:37.660Z,17.45
2022-10-19T00:16:11.477Z,20.05
2022-10-19T00:18:40.102Z,16.75
2022-10-19T00:21:10.236Z,18.45
2022-10-19T00:23:38.365Z,23.27
2022-10-19T00:26:06.640Z,16.40
2022-10-19T00:28:36.216Z,19.40
2022-10-19T00:31:05.768Z,16.80
2022-10-19T00:33:34.080Z,20.08
2022-10-19T00:36:02.587Z,19.25
2022-10-19T00:38:30.727Z,18.33
2022-10-19T00:40:59.247Z,18.30
2022-10-19T00:43:29.064Z,13.95
2022-10-19T00:45:58.525Z,10.82
2022-10-19T00:48:29.641Z,16.58
2022-10-19T00:51:00.028Z,18.08
2022-10-19T00:53:31.708Z,19.73
2022-10-19T00:56:03.580Z,20.45
2022-10-19T00:58:32.602Z,23.50
2022-10-19T01:01:05.799Z,22.58
2022-10-19T01:06:05.480Z,21.77
2022-10-19T01:08:33.626Z,22.85
2022-10-19T01:11:16.146Z,19.00
2022-10-19T01:13:51.220Z,22.45
2022-10-19T01:16:32.742Z,21.70
2022-10-19T01:19:10.498Z,26.80
2022-10-19T01:21:42.453Z,21.98
2022-10-19T01:24:36.995Z,24.25
2022-10-19T01:27:33.744Z,24.23
2022-10-19T01:30:10.040Z,21.73
2022-10-19T01:32:48.683Z,20.90
2022-10-19T01:35:28.495Z,18.65
2022-10-19T01:38:08.718Z,16.67
2022-10-19T01:40:45.628Z,18.15
2022-10-19T01:43:23.384Z,17.02
2022-10-19T01:45:56.697Z,18.30
2022-10-19T01:51:01.394Z,16.05
2022-10-19T01:56:01.540Z,14.45
2022-10-19T01:58:33.184Z,17.05
2022-10-19T02:01:07.254Z,18.35
2022-10-19T02:03:36.503Z,18.55
2022-10-19T02:06:07.449Z,20.63
2022-10-19T02:08:40.715Z,24.35
2022-10-19T02:11:09.112Z,18.25
2022-10-19T02:13:39.890Z,21.27
2022-10-19T02:16:15.549Z,22.13
2022-10-19T02:18:47.794Z,16.30
2022-10-19T02:21:16.221Z,19.90
2022-10-19T02:23:45.186Z,23.30
2022-10-19T02:26:13.343Z,17.35
2022-10-19T02:28:41.555Z,16.35
2022-10-19T02:31:11.397Z,14.75
2022-10-19T02:33:39.782Z,19.80
2022-10-19T02:36:08.387Z,15.57
2022-10-19T02:38:36.695Z,16.23
2022-10-19T02:41:10.934Z,15.68
2022-10-19T02:43:41.966Z,13.85
2022-10-19T02:46:17.648Z,14.65
2022-10-19T02:48:46.265Z,18.58
2022-10-19T02:51:32.018Z,22.58
2022-10-19T02:54:04.138Z,24.30
2022-10-19T02:59:02.000Z,25.30
2022-10-19T03:01:31.713Z,43.60
2022-10-19T03:03:59.790Z,66.03
2022-10-19T03:06:27.913Z,86.18
2022-10-19T03:08:56.047Z,73.30
2022-10-19T03:11:24.147Z,53.92
2022-10-19T03:13:52.222Z,84.03
2022-10-19T03:16:20.322Z,68.90
2022-10-19T03:18:50.922Z,70.03
2022-10-19T03:21:20.019Z,91.32
2022-10-19T03:23:48.146Z,81.05
2022-10-19T03:26:18.093Z,61.17
2022-10-19T03:28:46.254Z,72.78
2022-10-19T03:31:14.435Z,64.55
2022-10-19T03:33:42.549Z,37.53
2022-10-19T03:36:22.515Z,41.72
2022-10-19T03:38:52.620Z,31.40
2022-10-19T03:41:20.963Z,42.53
2022-10-19T03:43:49.434Z,33.35
2022-10-19T03:46:17.878Z,40.85
2022-10-19T03:48:46.358Z,29.27
2022-10-19T03:51:16.447Z,22.65
2022-10-19T03:53:46.563Z,23.15
2022-10-19T03:56:16.547Z,15.88
2022-10-19T03:58:46.105Z,30.10
2022-10-19T04:01:16.820Z,30.40
2022-10-19T04:03:45.474Z,37.80
2022-10-19T04:06:18.339Z,44.78
2022-10-19T04:08:51.192Z,45.08
2022-10-19T04:11:22.387Z,36.08
2022-10-19T04:13:51.323Z,53.88
2022-10-19T04:16:19.986Z,64.75
2022-10-19T04:18:48.442Z,35.25
2022-10-19T04:21:25.485Z,26.02
2022-10-19T04:23:58.882Z,38.97
2022-10-19T04:28:55.459Z,29.92
2022-10-19T04:31:23.555Z,20.88
2022-10-19T04:33:51.653Z,17.85
2022-10-19T04:36:20.008Z,18.73
2022-10-19T04:38:48.412Z,21.30
2022-10-19T04:41:19.721Z,23.25
2022-10-19T04:43:48.424Z,18.85
2022-10-19T04:46:18.076Z,61.33
2022-10-19T04:48:47.435Z,50.28
2022-10-19T04:51:16.776Z,29.45
2022-10-19T04:53:45.315Z,21.65
2022-10-19T04:56:15.663Z,22.30
2022-10-19T04:58:45.573Z,26.05
2022-10-19T05:01:15.525Z,27.48
2022-10-19T05:03:43.891Z,66.68
2022-10-19T05:06:13.244Z,62.38
2022-10-19T05:08:41.483Z,36.65
2022-10-19T05:11:11.874Z,52.60
2022-10-19T05:13:40.285Z,62.30
2022-10-19T05:16:13.032Z,24.05
2022-10-19T05:18:41.256Z,31.90
2022-10-19T05:21:10.967Z,15.85
2022-10-19T05:23:39.633Z,12.55
2022-10-19T05:26:09.522Z,11.90
2022-10-19T05:28:38.335Z,18.90
2022-10-19T05:31:09.440Z,49.58
2022-10-19T05:33:38.535Z,35.58
2022-10-19T05:36:15.728Z,30.10
2022-10-19T05:38:44.265Z,23.52
2022-10-19T05:41:15.018Z,11.95
2022-10-19T05:43:43.673Z,10.25
2022-10-19T05:46:15.305Z,12.40
2022-10-19T05:48:43.428Z,10.27
2022-10-19T05:51:13.443Z,13.30
2022-10-19T05:53:42.298Z,11.85
2022-10-19T05:56:14.523Z,13.80
2022-10-19T05:58:44.604Z,16.58
2022-10-19T06:01:14.194Z,13.73
2022-10-19T06:03:42.682Z,12.70
2022-10-19T06:06:11.126Z,12.20
2022-10-19T06:08:39.998Z,10.55
2022-10-19T06:11:09.601Z,18.73
2022-10-19T06:13:38.253Z,14.02
2022-10-19T06:16:08.019Z,13.30
2022-10-19T06:18:37.832Z,13.88
2022-10-19T06:21:08.253Z,12.13
2022-10-19T06:23:36.990Z,12.60
2022-10-19T06:26:06.969Z,11.80
2022-10-19T06:28:35.194Z,10.57
2022-10-19T06:31:06.059Z,9.80
2022-10-19T06:33:40.947Z,13.95
2022-10-19T06:36:09.758Z,11.95
2022-10-19T06:38:38.250Z,11.02
2022-10-19T06:41:06.957Z,17.38
2022-10-19T06:43:35.781Z,12.00
2022-10-19T06:46:06.357Z,9.25
2022-10-19T06:48:34.844Z,11.38
2022-10-19T06:51:06.700Z,8.77
2022-10-19T06:53:34.904Z,10.95
2022-10-19T06:56:05.691Z,10.50
2022-10-19T06:58:36.686Z,9.18
2022-10-19T07:01:07.581Z,9.95
2022-10-19T07:03:36.656Z,12.98
2022-10-19T07:06:08.823Z,9.13
2022-10-19T07:08:38.567Z,12.90
2022-10-19T07:11:11.993Z,9.38
2022-10-19T07:13:40.724Z,7.60
2022-10-19T07:16:15.884Z,7.97
2022-10-19T07:18:48.070Z,9.38
2022-10-19T07:21:26.293Z,7.75
2022-10-19T07:23:54.448Z,9.98
2022-10-19T07:26:38.635Z,7.70
2022-10-19T07:29:07.046Z,9.65
2022-10-19T07:31:35.624Z,7.60
2022-10-19T07:34:06.227Z,11.07
2022-10-19T07:36:36.974Z,7.70
2022-10-19T07:39:07.627Z,14.00
2022-10-19T07:41:36.058Z,7.07
2022-10-19T07:44:04.607Z,6.28
2022-10-19T07:46:34.168Z,6.13
2022-10-19T07:49:02.892Z,4.80
2022-10-19T07:51:31.240Z,6.70
2022-10-19T07:54:01.240Z,4.93
2022-10-19T07:56:30.153Z,7.55
2022-10-19T07:58:59.607Z,6.68
2022-10-19T08:01:29.622Z,5.80
2022-10-19T08:06:47.812Z,5.32
2022-10-19T08:09:40.200Z,7.75
2022-10-19T08:12:06.098Z,5.13
2022-10-19T08:14:34.318Z,6.15
2022-10-19T08:17:02.503Z,5.88
2022-10-19T08:19:30.647Z,5.68
2022-10-19T08:21:58.734Z,8.95
2022-10-19T08:24:28.484Z,10.70
2022-10-19T08:26:56.628Z,7.85
2022-10-19T08:29:26.629Z,4.60
2022-10-19T08:31:57.508Z,6.22
2022-10-19T08:34:25.668Z,7.20
2022-10-19T08:36:53.969Z,7.20
2022-10-19T08:39:22.039Z,6.45
2022-10-19T08:42:02.102Z,6.13
2022-10-19T08:45:02.429Z,6.80
2022-10-19T08:47:45.926Z,9.25
2022-10-19T08:50:19.840Z,6.25
2022-10-19T08:52:53.670Z,7.13
2022-10-19T08:55:29.267Z,5.13
2022-10-19T08:58:07.845Z,5.88
2022-10-19T09:00:42.895Z,4.57
2022-10-19T09:03:32.037Z,5.80
2022-10-19T09:06:20.395Z,5.75
2022-10-19T09:08:49.493Z,9.27
2022-10-19T09:11:21.589Z,5.25
2022-10-19T09:14:04.610Z,5.40
2022-10-19T09:16:34.792Z,3.92
2022-10-19T09:19:03.422Z,7.70
2022-10-19T09:21:46.324Z,3.10
2022-10-19T09:24:29.284Z,5.07
2022-10-19T09:27:00.102Z,5.10
2022-10-19T09:29:37.505Z,4.22
2022-10-19T09:32:11.691Z,8.05
2022-10-19T09:34:44.694Z,5.90
2022-10-19T09:37:21.149Z,7.50
2022-10-19T09:39:55.490Z,3.10
2022-10-19T09:42:29.096Z,2.90
2022-10-19T09:45:01.553Z,4.85
2022-10-19T09:47:37.237Z,5.78
2022-10-19T09:50:20.662Z,4.35
2022-10-19T09:52:49.806Z,3.80
2022-10-19T09:55:36.892Z,9.18
2022-10-19T09:58:16.842Z,7.50
2022-10-19T10:00:50.477Z,4.10
2022-10-19T10:03:30.766Z,6.57
2022-10-19T10:06:03.224Z,4.53
2022-10-19T10:08:34.470Z,6.47
2022-10-19T10:11:11.479Z,5.45
2022-10-19T10:13:41.914Z,4.65
2022-10-19T10:16:16.397Z,3.58
2022-10-19T10:18:54.984Z,6.68
2022-10-19T10:21:25.885Z,8.27
2022-10-19T10:24:05.907Z,5.05
2022-10-19T10:26:39.560Z,5.45
2022-10-19T10:29:20.184Z,5.18
2022-10-19T10:31:52.516Z,3.45
2022-10-19T10:34:45.372Z,6.68
2022-10-19T10:37:21.574Z,6.57
2022-10-19T10:39:53.680Z,3.67
2022-10-19T10:42:29.707Z,7.18
2022-10-19T10:44:58.619Z,2.58
2022-10-19T10:47:30.517Z,3.97
2022-10-19T10:50:01.245Z,3.58
2022-10-19T10:52:31.295Z,6.63
2022-10-19T10:55:02.294Z,2.85
2022-10-19T10:57:38.063Z,4.85
2022-10-19T11:00:11.438Z,3.05
2022-10-19T11:02:47.447Z,3.08
2022-10-19T11:05:20.810Z,3.88
2022-10-19T11:07:51.750Z,3.45
2022-10-19T11:10:26.636Z,4.50
2022-10-19T11:13:02.776Z,3.10
2022-10-19T11:15:38.151Z,3.55
2022-10-19T11:18:17.309Z,2.78
2022-10-19T11:20:52.868Z,3.08
2022-10-19T11:23:29.712Z,5.20
2022-10-19T11:26:09.243Z,2.88
2022-10-19T11:28:51.078Z,3.65
2022-10-19T11:31:23.413Z,2.70
2022-10-19T11:34:05.541Z,3.70
2022-10-19T11:36:48.416Z,3.22
2022-10-19T11:39:36.569Z,2.65
2022-10-19T11:42:14.861Z,5.07
2022-10-19T11:44:54.233Z,4.53
2022-10-19T11:47:39.898Z,7.45
2022-10-19T11:50:21.661Z,3.35
2022-10-19T11:52:55.962Z,3.00
2022-10-19T11:55:37.187Z,4.47
2022-10-19T11:58:16.397Z,1.83
2022-10-19T12:00:51.280Z,4.75
2022-10-19T12:03:57.734Z,5.28
2022-10-19T12:06:33.066Z,3.40
2022-10-19T12:09:22.681Z,3.53
2022-10-19T12:12:03.075Z,3.00
2022-10-19T12:14:35.513Z,2.67
2022-10-19T12:17:09.130Z,3.42
2022-10-19T12:19:42.736Z,1.65
2022-10-19T12:22:17.449Z,2.97
2022-10-19T12:24:45.535Z,3.65
2022-10-19T12:27:16.274Z,3.15
2022-10-19T12:29:49.710Z,2.20
2022-10-19T12:32:22.709Z,2.42
2022-10-19T12:37:29.146Z,2.78
2022-10-19T12:40:04.807Z,3.00
2022-10-19T12:42:51.992Z,2.88
2022-10-19T12:45:26.486Z,5.72
2022-10-19T12:48:18.940Z,2.92
2022-10-19T12:51:15.708Z,3.58
2022-10-19T12:53:48.904Z,5.28
2022-10-19T12:56:20.850Z,2.88
2022-10-19T12:58:54.005Z,4.88
2022-10-19T13:01:27.055Z,3.38
2022-10-19T13:06:39.279Z,3.25
2022-10-19T13:09:11.052Z,4.70
2022-10-19T13:12:22.049Z,3.08
2022-10-19T13:14:55.200Z,3.67
2022-10-19T13:17:43.855Z,3.33
2022-10-19T13:20:49.485Z,3.30
2022-10-19T13:23:39.100Z,5.93
2022-10-19T13:26:34.073Z,5.22
2022-10-19T13:29:02.635Z,3.40
2022-10-19T13:31:33.170Z,5.35
2022-10-19T13:34:01.438Z,6.07
2022-10-19T13:36:32.291Z,3.28
2022-10-19T13:39:08.577Z,3.72
2022-10-19T13:41:54.614Z,4.53
2022-10-19T13:44:30.930Z,4.63
2022-10-19T13:47:31.532Z,3.33
2022-10-19T13:50:19.512Z,1.95
2022-10-19T13:53:28.835Z,2.85
2022-10-19T13:56:25.505Z,2.30
2022-10-19T13:59:33.142Z,4.13
2022-10-19T14:02:37.565Z,5.85
2022-10-19T14:05:23.040Z,1.73
2022-10-19T14:08:03.959Z,1.35
2022-10-19T14:10:43.503Z,2.50
2022-10-19T14:13:22.378Z,4.13
2022-10-19T14:15:54.672Z,3.47
2022-10-19T14:18:28.087Z,5.63
2022-10-19T14:21:00.151Z,4.13
2022-10-19T14:23:29.961Z,1.73
2022-10-19T14:26:01.618Z,5.00
2022-10-19T14:28:30.407Z,3.05
2022-10-19T14:31:02.067Z,3.42
2022-10-19T14:33:33.392Z,2.20
2022-10-19T14:36:02.002Z,2.75
2022-10-19T14:38:35.371Z,2.67
2022-10-19T14:41:05.216Z,3.90
2022-10-19T14:43:34.989Z,3.28
2022-10-19T14:46:13.327Z,2.17
2022-10-19T14:48:45.274Z,6.07
2022-10-19T14:51:31.999Z,10.05
2022-10-19T14:54:03.832Z,5.95
2022-10-19T14:56:37.807Z,6.28
2022-10-19T14:59:16.885Z,5.40
2022-10-19T15:01:51.376Z,2.85
2022-10-19T15:04:21.887Z,2.90
2022-10-19T15:06:50.179Z,3.03
2022-10-19T15:09:37.005Z,3.58
2022-10-19T15:12:18.002Z,4.03
2022-10-19T15:14:47.671Z,4.47
2022-10-19T15:17:31.291Z,5.65
2022-10-19T15:22:40.897Z,3.00
2022-10-19T15:25:36.784Z,2.78
2022-10-19T15:28:21.719Z,3.42
2022-10-19T15:31:00.299Z,3.88
2022-10-19T15:33:30.111Z,5.93
2022-10-19T15:36:08.540Z,3.55
2022-10-19T15:38:36.847Z,3.92
2022-10-19T15:41:05.811Z,4.03
2022-10-19T15:43:39.329Z,2.63
2022-10-19T15:46:09.785Z,4.80
2022-10-19T15:48:52.354Z,6.30
2022-10-19T15:51:38.833Z,2.85
2022-10-19T15:56:37.507Z,3.55
2022-10-19T15:59:10.073Z,4.90
2022-10-19T16:01:38.408Z,4.22
2022-10-19T16:04:08.056Z,8.90
2022-10-19T16:06:39.984Z,5.72
2022-10-19T16:09:08.518Z,2.05
2022-10-19T16:11:38.067Z,4.53
2022-10-19T16:14:06.267Z,2.60
2022-10-19T16:16:35.786Z,3.80
2022-10-19T16:19:08.646Z,2.60
2022-10-19T16:21:37.365Z,3.70
2022-10-19T16:24:06.081Z,3.28
2022-10-19T16:26:34.566Z,3.05
2022-10-19T16:29:03.433Z,4.30
2022-10-19T16:31:31.622Z,4.97
2022-10-19T16:33:59.724Z,4.00
2022-10-19T16:36:29.223Z,4.10
2022-10-19T16:38:57.299Z,3.00
2022-10-19T16:41:25.389Z,2.85
2022-10-19T16:43:57.190Z,3.97
2022-10-19T16:46:25.905Z,5.28
2022-10-19T16:48:54.596Z,3.30
2022-10-19T16:51:36.672Z,6.57
2022-10-19T16:54:06.393Z,5.00
2022-10-19T16:56:35.879Z,4.85
2022-10-19T16:59:05.950Z,5.90
2022-10-19T17:01:35.832Z,3.35
2022-10-19T17:04:04.160Z,2.90
2022-10-19T17:06:32.272Z,2.03
2022-10-19T17:09:36.580Z,5.38
2022-10-19T17:11:50.100Z,3.67
2022-10-19T17:14:18.269Z,4.78
2022-10-19T17:16:46.392Z,3.97
2022-10-19T17:19:14.494Z,3.45
2022-10-19T17:21:42.741Z,6.07
2022-10-19T17:24:21.074Z,3.22
2022-10-19T17:26:51.634Z,2.83
2022-10-19T17:29:20.735Z,4.95
2022-10-19T17:31:49.327Z,8.10
2022-10-19T17:34:17.921Z,4.38
2022-10-19T17:36:46.664Z,4.93
2022-10-19T17:39:18.607Z,5.38
2022-10-19T17:41:47.282Z,5.72
2022-10-19T17:44:16.229Z,4.70
2022-10-19T17:46:44.732Z,4.60
2022-10-19T17:49:13.682Z,11.93
2022-10-19T17:51:42.270Z,5.05
2022-10-19T17:54:12.765Z,5.97
2022-10-19T17:56:44.993Z,4.35
2022-10-19T17:59:13.629Z,5.80
2022-10-19T18:01:43.134Z,4.40
2022-10-19T18:04:11.236Z,4.75
2022-10-19T18:06:40.119Z,6.38
2022-10-19T18:09:10.529Z,7.18
2022-10-19T18:11:43.858Z,6.38
2022-10-19T18:14:13.445Z,4.35
2022-10-19T18:16:44.721Z,6.07
2022-10-19T18:19:14.654Z,4.85
2022-10-19T18:21:44.524Z,5.88
2022-10-19T18:24:16.563Z,5.85
2022-10-19T18:26:46.360Z,5.22
2022-10-19T18:29:17.429Z,3.10
2022-10-19T18:31:49.099Z,8.32
2022-10-19T18:34:18.007Z,6.72
2022-10-19T18:36:46.081Z,5.95
2022-10-19T18:39:15.097Z,6.05
2022-10-19T18:41:43.530Z,10.27
2022-10-19T18:44:14.832Z,4.90
2022-10-19T18:46:42.965Z,6.00
2022-10-19T18:49:12.930Z,7.93
2022-10-19T18:51:41.096Z,7.07
2022-10-19T18:54:09.721Z,5.63
2022-10-19T18:56:37.807Z,6.90
2022-10-19T18:59:06.091Z,3.92
2022-10-19T19:01:35.719Z,5.88
2022-10-19T19:04:09.297Z,8.70
2022-10-19T19:06:38.279Z,5.78
2022-10-19T19:09:09.663Z,5.50
2022-10-19T19:11:40.986Z,3.20
2022-10-19T19:14:12.698Z,3.53
2022-10-19T19:16:43.504Z,5.45
2022-10-19T19:19:13.071Z,7.93
2022-10-19T19:21:44.150Z,9.63
2022-10-19T19:24:14.545Z,6.50
2022-10-19T19:26:45.640Z,13.60
2022-10-19T19:29:13.724Z,23.05
2022-10-19T19:31:43.426Z,10.43
2022-10-19T19:34:11.822Z,7.80
2022-10-19T19:36:46.914Z,4.55
2022-10-19T19:39:15.835Z,7.55
2022-10-19T19:41:43.889Z,8.60
2022-10-19T19:44:12.002Z,6.93
2022-10-19T19:46:40.070Z,7.70
2022-10-19T19:49:09.847Z,13.88
2022-10-19T19:51:37.958Z,6.70
2022-10-19T19:54:06.244Z,6.78
2022-10-19T19:56:34.677Z,8.75
2022-10-19T19:59:04.469Z,6.82
2022-10-19T20:01:33.423Z,7.50
2022-10-19T20:06:38.711Z,12.20
2022-10-19T20:09:08.613Z,14.88
2022-10-19T20:11:41.252Z,10.90
2022-10-19T20:14:10.777Z,7.65
2022-10-19T20:16:38.963Z,8.48
2022-10-19T20:19:08.996Z,9.07
2022-10-19T20:21:38.782Z,9.73
2022-10-19T20:24:07.290Z,7.43
2022-10-19T20:26:35.392Z,6.40
2022-10-19T20:29:04.099Z,9.43
2022-10-19T20:31:33.455Z,12.63
2022-10-19T20:34:01.760Z,6.10
2022-10-19T20:36:29.921Z,9.40
2022-10-19T20:38:59.862Z,7.55
2022-10-19T20:41:28.942Z,5.57
2022-10-19T20:43:57.733Z,6.13
2022-10-19T20:46:27.549Z,4.97
2022-10-19T20:48:57.990Z,7.18
2022-10-19T20:51:30.924Z,7.57
2022-10-19T20:54:03.079Z,8.32
2022-10-19T20:56:34.389Z,7.10
2022-10-19T20:59:04.984Z,8.65
2022-10-19T21:01:35.098Z,5.70
2022-10-19T21:04:05.276Z,5.22
2022-10-19T21:06:35.835Z,7.85
2022-10-19T21:09:05.495Z,4.57
2022-10-19T21:11:35.547Z,6.22
2022-10-19T21:14:05.943Z,4.68
2022-10-19T21:16:35.214Z,7.40
2022-10-19T21:19:05.708Z,6.05
2022-10-19T21:21:35.406Z,8.07
2022-10-19T21:24:07.714Z,7.07
2022-10-19T21:26:37.537Z,6.28
2022-10-19T21:29:07.223Z,6.03
2022-10-19T21:31:35.262Z,6.45
2022-10-19T21:34:05.896Z,4.88
2022-10-19T21:36:34.480Z,6.60
2022-10-19T21:39:04.474Z,5.30
2022-10-19T21:41:33.186Z,5.80
2022-10-19T21:44:01.660Z,7.20
2022-10-19T21:46:29.852Z,7.05
2022-10-19T21:48:58.118Z,8.02
2022-10-19T21:51:34.354Z,7.30
2022-10-19T21:54:04.493Z,5.38
2022-10-19T21:56:33.163Z,7.07
2022-10-19T21:59:01.563Z,7.40
2022-10-19T22:01:37.140Z,9.48
2022-10-19T22:04:09.893Z,7.13
2022-10-19T22:06:38.106Z,8.05
2022-10-19T22:09:09.804Z,9.13
2022-10-19T22:11:37.986Z,8.10
2022-10-19T22:14:06.646Z,10.23
2022-10-19T22:16:36.850Z,7.60
2022-10-19T22:19:06.159Z,7.43
2022-10-19T22:21:35.516Z,8.18
2022-10-19T22:24:05.356Z,8.77
2022-10-19T22:26:37.280Z,5.80
2022-10-19T22:29:07.026Z,7.10
2022-10-19T22:31:35.983Z,5.18
2022-10-19T22:34:06.062Z,4.55
2022-10-19T22:36:34.180Z,12.73
2022-10-19T22:39:02.272Z,6.43
2022-10-19T22:41:30.379Z,7.03
2022-10-19T22:43:59.833Z,6.88
2022-10-19T22:46:27.966Z,5.63
2022-10-19T22:48:56.076Z,3.85
2022-10-19T22:51:24.249Z,9.20
2022-10-19T22:53:52.340Z,5.45
2022-10-19T22:56:20.482Z,4.65
2022-10-19T22:58:48.586Z,5.50
2022-10-19T23:01:19.054Z,6.07
2022-10-19T23:03:47.167Z,5.32
2022-10-19T23:06:16.907Z,6.25
2022-10-19T23:08:45.518Z,7.13
2022-10-19T23:11:14.127Z,5.75
2022-10-19T23:13:42.672Z,7.45
2022-10-19T23:16:11.087Z,7.53
2022-10-19T23:18:41.981Z,8.40
2022-10-19T23:21:12.556Z,8.75
2022-10-19T23:23:41.338Z,5.82
2022-10-19T23:26:11.156Z,6.15
2022-10-19T23:28:40.834Z,5.32
2022-10-19T23:31:11.497Z,7.05
2022-10-19T23:33:41.416Z,4.72
2022-10-19T23:36:12.539Z,6.43
2022-10-19T23:38:40.866Z,3.75
2022-10-19T23:41:08.938Z,5.13
2022-10-19T23:46:10.139Z,5.18
2022-10-19T23:48:40.351Z,4.90
2022-10-19T23:51:11.395Z,6.07
2022-10-19T23:53:41.898Z,6.60
2022-10-19T23:56:13.056Z,5.53
2022-10-19T23:58:41.148Z,3.65
